Time;durP1;ratioP1;P1;durP2;ratioP2;P2;SDS_P1;SDS_P2;PMS_P1;PMS_P2;Temp;Humidity;BMP_temperature;BMP_pressure;BME280_temperature;BME280_humidity;BME280_pressure;Samples;Min_cycle;Max_cycle;Signal;HPM_P1;HPM_P2
2022/10/31 00:02:00;;;;;;;3.25;2.45;;;;;;;12.03;100.00;99035.25;4134478;28;20680;-46
2022/10/31 00:04:03;;;;;;;2.58;2.28;;;;;;;12.03;100.00;99035.25;4134177;28;20336;-45
2022/10/31 00:06:05;;;;;;;2.92;2.33;;;;;;;11.68;100.00;99042.81;4144988;28;20205;-45
2022/10/31 00:08:06;;;;;;;2.53;2.30;;;;;;;11.74;100.00;99039.09;4131895;28;21162;-45
2022/10/31 00:10:08;;;;;;;3.38;2.65;;;;;;;11.77;100.00;99035.84;4134867;28;21659;-47
2022/10/31 00:12:10;;;;;;;2.83;2.53;;;;;;;11.85;100.00;99054.66;4137977;28;20798;-46
2022/10/31 00:14:12;;;;;;;2.28;2.08;;;;;;;11.87;100.00;99052.53;4119594;28;20218;-47
2022/10/31 00:16:18;;;;;;;3.20;2.70;;;;;;;11.91;100.00;99053.69;4135528;28;20226;-46
2022/10/31 00:18:19;;;;;;;3.13;1.98;;;;;;;11.93;100.00;99062.50;4131478;28;20292;-45
2022/10/31 00:20:21;;;;;;;4.05;2.80;;;;;;;12.11;100.00;99056.78;4130328;28;20297;-46
2022/10/31 00:22:23;;;;;;;2.78;2.58;;;;;;;11.94;100.00;99053.19;4136481;28;20205;-46
2022/10/31 00:24:24;;;;;;;3.67;3.35;;;;;;;11.88;100.00;99054.19;4130876;28;20706;-46
2022/10/31 00:26:28;;;;;;;3.47;2.88;;;;;;;11.85;100.00;99053.84;4132450;28;20225;-46
2022/10/31 00:28:30;;;;;;;5.25;2.92;;;;;;;11.94;100.00;99058.69;4130980;28;20269;-46
2022/10/31 00:30:32;;;;;;;3.60;3.25;;;;;;;11.97;100.00;99051.88;4120788;28;20234;-47
2022/10/31 00:32:33;;;;;;;2.55;2.35;;;;;;;11.86;100.00;99055.50;4129902;28;20210;-46
2022/10/31 00:34:35;;;;;;;2.60;2.40;;;;;;;11.82;100.00;99059.78;4132248;28;20555;-46
2022/10/31 00:36:37;;;;;;;2.03;1.73;;;;;;;11.77;100.00;99057.78;4130408;28;20258;-45
2022/10/31 00:38:39;;;;;;;1.98;1.77;;;;;;;11.79;100.00;99058.41;4148083;28;20233;-46
2022/10/31 00:40:40;;;;;;;2.15;1.95;;;;;;;11.77;100.00;99055.06;4130865;28;20216;-46
2022/10/31 00:42:43;;;;;;;5.70;2.65;;;;;;;11.86;100.00;99056.34;4135255;28;20213;-46
2022/10/31 00:44:45;;;;;;;3.17;2.78;;;;;;;11.87;100.00;99052.53;4134952;28;20209;-46
2022/10/31 00:46:46;;;;;;;2.88;2.05;;;;;;;11.78;100.00;99053.97;4129415;28;20568;-45
2022/10/31 00:48:48;;;;;;;3.50;2.30;;;;;;;11.77;100.00;99051.50;4131054;28;20235;-47
2022/10/31 00:50:50;;;;;;;6.47;2.22;;;;;;;11.75;100.00;99057.22;4135849;28;20214;-46
2022/10/31 00:52:54;;;;;;;4.40;3.25;;;;;;;11.72;100.00;99054.94;4129882;28;20237;-45
2022/10/31 00:54:56;;;;;;;4.45;2.20;;;;;;;11.65;100.00;99048.78;4135092;28;20625;-46
2022/10/31 00:56:57;;;;;;;3.08;2.88;;;;;;;11.72;100.00;99043.97;4131214;28;20228;-46
2022/10/31 00:58:59;;;;;;;6.07;2.42;;;;;;;11.57;100.00;99049.13;4114417;28;20249;-45
2022/10/31 01:01:01;;;;;;;2.63;2.17;;;;;;;11.63;100.00;99050.13;4145007;28;20206;-46
2022/10/31 01:03:03;;;;;;;2.28;2.08;;;;;;;11.65;100.00;99054.25;4135212;28;20229;-47
2022/10/31 01:05:05;;;;;;;5.25;2.75;;;;;;;11.60;100.00;99051.44;4146472;28;21114;-45
2022/10/31 01:07:06;;;;;;;2.58;2.38;;;;;;;11.67;100.00;99052.13;4133135;28;20313;-47
2022/10/31 01:09:08;;;;;;;3.00;2.80;;;;;;;11.65;100.00;99048.78;4129012;28;20259;-46
2022/10/31 01:11:28;;;;;;;4.53;1.80;;;;;;;11.61;100.00;99046.78;4135119;28;20213;-46
2022/10/31 01:13:29;;;;;;;2.20;2.10;;;;;;;11.54;100.00;99051.53;4134946;28;20217;-46
2022/10/31 01:15:31;;;;;;;5.90;2.30;;;;;;;11.52;100.00;99045.47;4132562;28;20742;-46
2022/10/31 01:17:33;;;;;;;2.35;2.03;;;;;;;11.56;100.00;99044.72;4131937;28;20940;-46
2022/10/31 01:19:34;;;;;;;3.33;3.03;;;;;;;11.57;100.00;99043.66;4132453;28;20293;-46
2022/10/31 01:21:36;;;;;;;2.47;2.22;;;;;;;11.64;100.00;99047.13;4134605;28;20292;-46
2022/10/31 01:23:38;;;;;;;9.05;2.70;;;;;;;11.68;100.00;99045.56;4130533;28;20226;-46
2022/10/31 01:25:40;;;;;;;4.03;1.95;;;;;;;11.69;100.00;99033.50;4119358;28;21123;-45
2022/10/31 01:27:41;;;;;;;5.50;2.28;;;;;;;11.67;100.00;99038.41;4132808;28;20225;-46
2022/10/31 01:29:43;;;;;;;5.85;2.00;;;;;;;11.62;100.00;99043.78;4130658;28;20312;-45
2022/10/31 01:31:45;;;;;;;2.25;2.08;;;;;;;11.57;100.00;99045.56;4131855;28;20211;-46
2022/10/31 01:33:47;;;;;;;2.67;2.33;;;;;;;11.56;100.00;99043.91;4129216;28;20292;-46
2022/10/31 01:35:49;;;;;;;2.55;2.35;;;;;;;11.56;100.00;99044.72;4131036;28;20942;-47
2022/10/31 01:37:50;;;;;;;3.10;2.80;;;;;;;11.53;100.00;99045.22;4134851;28;20316;-47
2022/10/31 01:39:52;;;;;;;2.63;2.13;;;;;;;11.53;100.00;99047.97;4134468;28;20216;-46
2022/10/31 01:41:54;;;;;;;3.30;3.05;;;;;;;11.52;100.00;99046.28;4132036;28;20639;-45
2022/10/31 01:44:22;;;;;;;6.07;4.15;;;;;;;11.49;100.00;99044.03;4134530;28;20656;-46
2022/10/31 01:46:33;;;;;;;3.72;2.17;;;;;;;11.50;100.00;99051.19;4127240;28;20284;-46
2022/10/31 01:48:35;;;;;;;2.95;2.45;;;;;;;11.56;100.00;99049.41;4147021;28;20623;-45
2022/10/31 01:50:38;;;;;;;3.50;2.47;;;;;;;11.52;100.00;99049.03;4132709;28;20221;-46
2022/10/31 01:52:44;;;;;;;1.88;1.70;;;;;;;11.53;100.00;99055.34;4131471;28;20858;-46
2022/10/31 01:54:53;;;;;;;3.50;2.50;;;;;;;11.57;100.00;99040.91;4137839;28;20276;-46
2022/10/31 01:56:56;;;;;;;11.65;2.20;;;;;;;11.58;100.00;99039.84;4138189;28;20680;-47
2022/10/31 01:59:00;;;;;;;3.85;1.95;;;;;;;11.60;100.00;99032.25;4137785;28;20303;-45
2022/10/31 02:01:01;;;;;;;2.50;2.30;;;;;;;11.56;100.00;99033.75;4133337;28;20224;-47
2022/10/31 02:03:08;;;;;;;2.40;1.92;;;;;;;11.62;100.00;99037.47;4121199;28;20444;-46
2022/10/31 02:05:13;;;;;;;2.65;2.45;;;;;;;11.45;100.00;99048.31;4132768;28;20252;-46
2022/10/31 02:07:26;;;;;;;2.63;2.40;;;;;;;11.41;100.00;99041.69;4136548;28;20245;-45
2022/10/31 02:09:30;;;;;;;2.70;2.50;;;;;;;11.38;100.00;99041.34;4118616;28;21077;-46
2022/10/31 02:11:34;;;;;;;2.47;2.28;;;;;;;11.41;100.00;99036.22;4133889;28;20973;-46
2022/10/31 02:13:36;;;;;;;2.42;2.22;;;;;;;11.37;100.00;99042.41;4140101;28;20205;-45
2022/10/31 02:15:39;;;;;;;2.25;1.60;;;;;;;11.31;100.00;99041.47;4121378;28;20214;-45
2022/10/31 02:17:41;;;;;;;2.58;2.00;;;;;;;11.33;100.00;99035.75;4135982;28;20316;-45
2022/10/31 02:19:53;;;;;;;2.55;2.15;;;;;;;11.40;100.00;99034.53;4118319;28;20206;-46
2022/10/31 02:22:21;;;;;;;2.30;2.10;;;;;;;11.36;100.00;99033.34;4135780;28;20670;-45
2022/10/31 02:24:49;;;;;;;2.33;2.13;;;;;;;11.36;100.00;99027.88;4135931;28;20217;-46
2022/10/31 02:27:19;;;;;;;6.43;2.28;;;;;;;11.44;100.00;99030.22;4135509;28;20396;-46
2022/10/31 02:29:42;;;;;;;4.90;1.73;;;;;;;11.38;100.00;99020.22;4136047;28;20226;-45
2022/10/31 02:31:49;;;;;;;3.67;2.47;;;;;;;11.33;100.00;99017.41;4145907;28;20211;-46
2022/10/31 02:33:53;;;;;;;1.98;1.88;;;;;;;11.36;100.00;99022.38;4136311;28;20215;-46
2022/10/31 02:36:05;;;;;;;1.70;1.58;;;;;;;11.33;100.00;99022.88;4131169;28;20217;-46
2022/10/31 02:38:23;;;;;;;2.38;1.95;;;;;;;11.33;100.00;99027.53;4131249;28;20202;-46
2022/10/31 02:40:30;;;;;;;2.10;1.90;;;;;;;11.35;100.00;99025.38;4128833;28;20201;-47
2022/10/31 02:42:36;;;;;;;3.22;2.92;;;;;;;11.38;100.00;99025.72;4147802;28;20299;-47
2022/10/31 02:44:47;;;;;;;3.22;3.03;;;;;;;11.33;100.00;99014.66;4144827;28;21866;-46
2022/10/31 02:47:11;;;;;;;6.00;1.73;;;;;;;11.31;100.00;99011.31;4134240;28;20340;-46
2022/10/31 02:49:26;;;;;;;2.03;1.92;;;;;;;11.30;100.00;99006.91;4133298;28;20228;-46
2022/10/31 02:51:28;;;;;;;3.83;2.30;;;;;;;11.26;100.00;99002.16;4132367;28;20209;-46
2022/10/31 02:53:33;;;;;;;2.88;1.70;;;;;;;11.22;100.00;98998.25;4132980;28;20252;-46
2022/10/31 02:55:35;;;;;;;2.25;1.90;;;;;;;11.22;100.00;98999.09;4135896;28;20220;-46
2022/10/31 02:57:38;;;;;;;2.50;2.30;;;;;;;11.28;100.00;99000.88;4135035;28;20630;-45
2022/10/31 02:59:46;;;;;;;2.28;2.08;;;;;;;11.29;100.00;99007.16;4134057;28;20209;-46
2022/10/31 03:01:56;;;;;;;2.55;2.05;;;;;;;11.34;100.00;99005.38;4137470;28;20280;-46
2022/10/31 03:04:11;;;;;;;2.72;2.25;;;;;;;11.32;100.00;99010.25;4137240;28;20205;-45
2022/10/31 03:06:37;;;;;;;2.55;1.90;;;;;;;11.28;100.00;99009.06;4131080;28;20642;-45
2022/10/31 03:08:45;;;;;;;4.22;2.63;;;;;;;11.33;100.00;99022.03;4137979;28;20221;-46
2022/10/31 03:10:52;;;;;;;3.92;2.75;;;;;;;11.27;100.00;99007.41;4135882;28;20205;-46
2022/10/31 03:13:23;;;;;;;2.92;2.35;;;;;;;11.23;100.00;99010.88;4132206;28;20291;-47
2022/10/31 03:15:29;;;;;;;2.70;2.42;;;;;;;11.17;100.00;99012.66;4135392;28;20219;-45
2022/10/31 03:17:41;;;;;;;2.80;2.60;;;;;;;11.16;100.00;99015.63;4133098;28;20336;-46
2022/10/31 03:19:46;;;;;;;2.97;2.67;;;;;;;11.18;100.00;99014.34;4135944;28;20209;-46
2022/10/31 03:22:17;;;;;;;2.88;2.40;;;;;;;11.18;100.00;99010.78;4137102;28;20754;-45
2022/10/31 03:24:19;;;;;;;2.55;2.35;;;;;;;11.26;100.00;99005.75;4132257;28;20212;-47
2022/10/31 03:26:22;;;;;;;2.83;2.63;;;;;;;11.23;100.00;99006.22;4121040;28;20321;-46
2022/10/31 03:28:29;;;;;;;2.13;1.80;;;;;;;11.19;100.00;99009.69;4129862;28;20265;-46
2022/10/31 03:30:33;;;;;;;2.72;2.53;;;;;;;11.20;100.00;99006.72;4130105;28;20839;-47
2022/10/31 03:32:39;;;;;;;2.63;2.42;;;;;;;11.20;100.00;99005.88;4133835;28;20202;-47
2022/10/31 03:34:42;;;;;;;3.70;3.40;;;;;;;11.14;100.00;99010.44;4145463;28;20209;-46
2022/10/31 03:36:45;;;;;;;2.72;2.53;;;;;;;11.21;100.00;99013.88;4146763;28;20315;-45
2022/10/31 03:38:47;;;;;;;2.75;2.55;;;;;;;11.17;100.00;99011.84;4133486;28;20209;-45
2022/10/31 03:40:51;;;;;;;8.55;2.83;;;;;;;11.19;100.00;99016.03;4123430;28;20229;-45
2022/10/31 03:43:01;;;;;;;2.28;2.10;;;;;;;11.04;100.00;99018.41;4133954;28;20218;-46
2022/10/31 03:45:06;;;;;;;2.83;2.17;;;;;;;10.98;100.00;99013.88;4135021;28;20213;-46
2022/10/31 03:47:08;;;;;;;2.90;2.70;;;;;;;10.99;100.00;99015.59;4131545;28;20659;-45
2022/10/31 03:49:11;;;;;;;2.40;2.15;;;;;;;10.98;100.00;99008.41;4135669;28;20320;-47
2022/10/31 03:51:23;;;;;;;2.20;2.00;;;;;;;11.03;100.00;99008.53;4135722;28;20747;-47
2022/10/31 03:54:09;;;;;;;3.55;2.10;;;;;;;11.02;100.00;99017.81;4132519;28;20296;-46
2022/10/31 03:56:35;;;;;;;4.07;2.20;;;;;;;10.99;100.00;99026.53;4138109;28;20230;-45
2022/10/31 03:58:43;;;;;;;2.55;2.20;;;;;;;10.94;100.00;99018.19;4122458;28;20208;-45
2022/10/31 04:00:45;;;;;;;3.20;2.28;;;;;;;10.96;100.00;99016.03;4132104;28;20204;-46
2022/10/31 04:02:51;;;;;;;2.63;2.25;;;;;;;10.96;100.00;99006.97;4119442;28;20303;-45
2022/10/31 04:04:53;;;;;;;3.47;3.22;;;;;;;10.95;100.00;99008.91;4132470;28;21187;-46
2022/10/31 04:06:56;;;;;;;2.05;1.88;;;;;;;10.92;100.00;99003.91;4135236;28;20312;-46
2022/10/31 04:09:02;;;;;;;3.67;3.05;;;;;;;10.88;100.00;99008.22;4129255;28;20709;-46
2022/10/31 04:11:04;;;;;;;3.15;2.30;;;;;;;10.94;100.00;99006.41;4145788;28;20201;-46
2022/10/31 04:13:08;;;;;;;1.85;1.75;;;;;;;10.96;100.00;99010.56;4132147;28;20239;-46
2022/10/31 04:15:11;;;;;;;2.85;2.22;;;;;;;10.92;100.00;99009.38;4137839;28;20246;-47
2022/10/31 04:17:15;;;;;;;2.38;2.17;;;;;;;10.73;100.00;99011.66;4118993;28;20225;-47
2022/10/31 04:19:17;;;;;;;2.92;2.72;;;;;;;10.60;100.00;99017.38;4135429;28;20942;-46
2022/10/31 04:21:18;;;;;;;2.45;2.25;;;;;;;10.67;100.00;99009.91;4131260;28;20705;-46
2022/10/31 04:23:22;;;;;;;3.03;2.15;;;;;;;10.69;100.00;99008.56;4133239;28;20212;-45
2022/10/31 04:25:24;;;;;;;2.83;2.42;;;;;;;10.74;100.00;99005.13;4135694;28;20215;-46
2022/10/31 04:27:26;;;;;;;2.80;2.50;;;;;;;10.68;100.00;99006.09;4135763;28;20323;-45
2022/10/31 04:29:27;;;;;;;2.20;2.00;;;;;;;10.70;100.00;99009.41;4131828;28;20225;-45
2022/10/31 04:31:29;;;;;;;3.92;2.13;;;;;;;10.72;100.00;99002.63;4133865;28;20279;-45
2022/10/31 04:33:31;;;;;;;3.45;3.15;;;;;;;10.72;100.00;99008.09;4137045;28;20206;-47
2022/10/31 04:35:32;;;;;;;2.95;2.35;;;;;;;10.71;100.00;99011.06;4129994;28;20204;-45
2022/10/31 04:37:34;;;;;;;3.97;2.22;;;;;;;10.71;100.00;99003.69;4132341;28;20233;-45
2022/10/31 04:39:36;;;;;;;2.40;2.20;;;;;;;10.63;100.00;99005.97;4130283;28;20725;-45
2022/10/31 04:41:37;;;;;;;2.95;2.53;;;;;;;10.58;100.00;98998.47;4132852;28;20298;-45
2022/10/31 04:43:39;;;;;;;2.65;2.47;;;;;;;10.59;100.00;98997.41;4145235;28;20560;-46
2022/10/31 04:45:41;;;;;;;1.67;1.58;;;;;;;10.64;100.00;98999.41;4144791;28;20212;-45
2022/10/31 04:47:42;;;;;;;3.33;3.03;;;;;;;10.59;100.00;98993.81;4134767;28;20235;-45
2022/10/31 04:49:44;;;;;;;2.38;2.17;;;;;;;10.59;100.00;98996.53;4117853;28;20760;-46
2022/10/31 04:51:46;;;;;;;3.17;2.75;;;;;;;10.58;100.00;98997.63;4130831;28;20424;-45
2022/10/31 04:53:47;;;;;;;2.03;1.80;;;;;;;10.51;100.00;98999.66;4128596;28;20210;-46
2022/10/31 04:55:49;;;;;;;2.22;2.13;;;;;;;10.49;100.00;98996.34;4129274;28;20268;-47
2022/10/31 04:57:51;;;;;;;2.17;1.98;;;;;;;10.46;100.00;99002.25;4135496;28;20232;-46
2022/10/31 04:59:52;;;;;;;2.70;2.50;;;;;;;10.50;100.00;99006.19;4131457;28;20284;-45
2022/10/31 05:01:54;;;;;;;2.50;2.30;;;;;;;10.55;100.00;98998.13;4133791;28;20670;-48
2022/10/31 05:03:56;;;;;;;2.33;2.13;;;;;;;10.61;100.00;99003.44;4145776;28;20213;-45
2022/10/31 05:05:58;;;;;;;2.50;2.28;;;;;;;10.62;100.00;99001.56;4143450;28;20213;-46
2022/10/31 05:07:59;;;;;;;2.40;2.20;;;;;;;10.59;100.00;98985.59;4129747;28;20201;-47
2022/10/31 05:10:01;;;;;;;4.03;2.17;;;;;;;10.57;100.00;98999.53;4132159;28;20236;-46
2022/10/31 05:12:03;;;;;;;2.65;2.17;;;;;;;10.51;100.00;98984.06;4120436;28;20626;-46
2022/10/31 05:14:04;;;;;;;6.15;1.92;;;;;;;10.53;100.00;98984.66;4132708;28;20224;-46
2022/10/31 05:16:06;;;;;;;2.80;2.10;;;;;;;10.58;100.00;98994.88;4134910;28;20211;-47
2022/10/31 05:18:08;;;;;;;1.88;1.77;;;;;;;10.59;100.00;98985.59;4132371;28;20217;-45
2022/10/31 05:20:11;;;;;;;2.40;1.85;;;;;;;10.54;100.00;98982.78;4138608;28;20690;-46
2022/10/31 05:22:13;;;;;;;2.08;1.88;;;;;;;10.47;100.00;98988.34;4136928;28;20201;-46
2022/10/31 05:24:15;;;;;;;2.42;2.22;;;;;;;10.45;100.00;98985.03;4136641;28;20214;-45
2022/10/31 05:26:16;;;;;;;3.40;2.17;;;;;;;10.53;100.00;98975.59;4124176;28;20320;-46
2022/10/31 05:28:18;;;;;;;3.58;2.47;;;;;;;10.50;100.00;98987.03;4137631;28;20686;-46
2022/10/31 05:30:27;;;;;;;2.97;2.42;;;;;;;10.44;100.00;98979.78;4134942;28;20662;-46
2022/10/31 05:32:29;;;;;;;6.38;2.10;;;;;;;10.39;100.00;98980.50;4134759;28;20208;-46
2022/10/31 05:34:31;;;;;;;3.08;2.08;;;;;;;10.38;100.00;98969.78;4138383;28;20225;-46
2022/10/31 05:36:32;;;;;;;2.25;2.08;;;;;;;10.42;100.00;98968.25;4147129;28;20229;-47
2022/10/31 05:38:34;;;;;;;3.47;2.25;;;;;;;10.36;100.00;98969.19;4133488;28;20292;-46
2022/10/31 05:40:36;;;;;;;2.40;2.20;;;;;;;10.34;100.00;98963.16;4135383;28;20205;-45
2022/10/31 05:42:42;;;;;;;2.08;1.95;;;;;;;10.35;100.00;98970.28;4138792;28;20205;-45
2022/10/31 05:44:43;;;;;;;2.40;2.28;;;;;;;10.37;100.00;98959.91;4147205;28;20208;-46
2022/10/31 05:46:48;;;;;;;2.38;2.00;;;;;;;10.29;100.00;98963.03;4122675;28;20698;-46
2022/10/31 05:48:49;;;;;;;2.17;1.95;;;;;;;10.25;100.00;98953.59;4134391;28;20638;-47
2022/10/31 05:50:51;;;;;;;2.75;1.92;;;;;;;10.29;100.00;98952.06;4134817;28;20209;-45
2022/10/31 05:52:55;;;;;;;1.88;1.67;;;;;;;10.28;100.00;98950.41;4135752;28;20209;-46
2022/10/31 05:54:57;;;;;;;2.38;2.20;;;;;;;10.31;100.00;98952.66;4135084;28;20671;-45
2022/10/31 05:56:58;;;;;;;2.05;1.80;;;;;;;10.31;100.00;98952.66;4131857;28;20232;-46
2022/10/31 05:59:00;;;;;;;1.70;1.60;;;;;;;10.25;100.00;98948.13;4130015;28;20206;-45
2022/10/31 06:01:02;;;;;;;2.80;2.03;;;;;;;10.29;100.00;98952.06;4130929;28;20281;-46
2022/10/31 06:03:06;;;;;;;2.50;2.40;;;;;;;10.32;100.00;98948.84;4137613;28;20209;-46
2022/10/31 06:05:08;;;;;;;3.85;1.92;;;;;;;10.30;100.00;98954.59;4137225;28;20209;-46
2022/10/31 06:07:10;;;;;;;4.32;3.90;;;;;;;10.22;100.00;98960.38;4138545;28;20238;-46
2022/10/31 06:09:12;;;;;;;2.95;2.28;;;;;;;10.21;100.00;98956.00;4137522;28;20225;-47
2022/10/31 06:11:13;;;;;;;7.05;2.30;;;;;;;10.22;100.00;98956.84;4137659;28;20675;-46
2022/10/31 06:13:15;;;;;;;5.82;2.63;;;;;;;10.23;100.00;98953.88;4137005;28;20214;-45
2022/10/31 06:15:17;;;;;;;6.05;2.22;;;;;;;10.28;100.00;98955.88;4129226;28;20206;-46
2022/10/31 06:17:24;;;;;;;2.90;2.45;;;;;;;10.29;100.00;98957.53;4136419;28;20259;-45
2022/10/31 06:19:26;;;;;;;2.70;2.45;;;;;;;10.28;100.00;98961.34;4134053;28;20209;-45
2022/10/31 06:21:27;;;;;;;3.10;1.85;;;;;;;10.26;100.00;98958.00;4132904;28;20676;-48
2022/10/31 06:23:29;;;;;;;2.22;1.80;;;;;;;10.17;100.00;98953.97;4131895;28;20340;-46
2022/10/31 06:25:31;;;;;;;2.53;2.10;;;;;;;10.16;100.00;98955.03;4147681;28;20292;-46
2022/10/31 06:27:33;;;;;;;2.55;2.35;;;;;;;10.21;100.00;98960.66;4131227;28;20626;-46
2022/10/31 06:29:34;;;;;;;2.60;2.40;;;;;;;10.22;100.00;98959.56;4131926;28;20297;-47
2022/10/31 06:31:36;;;;;;;3.13;2.92;;;;;;;10.16;100.00;98965.97;4137189;28;20205;-46
2022/10/31 06:33:37;;;;;;;3.80;2.75;;;;;;;10.14;100.00;98959.94;4131829;28;20690;-46
2022/10/31 06:35:45;;;;;;;2.90;2.33;;;;;;;10.16;100.00;98958.59;4136285;28;20213;-46
2022/10/31 06:37:53;;;;;;;3.20;2.10;;;;;;;10.21;100.00;98958.72;4134396;28;20279;-46
2022/10/31 06:39:55;;;;;;;3.25;2.25;;;;;;;10.23;100.00;98959.34;4134143;28;20739;-46
2022/10/31 06:41:56;;;;;;;3.67;2.20;;;;;;;10.28;100.00;98958.63;4132211;28;20310;-46
2022/10/31 06:43:58;;;;;;;3.22;2.50;;;;;;;10.35;100.00;98956.59;4133503;28;20344;-46
2022/10/31 06:46:05;;;;;;;2.92;2.35;;;;;;;10.33;100.00;98955.97;4131072;28;20602;-46
2022/10/31 06:48:07;;;;;;;3.88;2.22;;;;;;;10.38;100.00;98956.97;4133773;28;20655;-46
2022/10/31 06:50:18;;;;;;;2.67;2.30;;;;;;;10.35;100.00;98956.59;4135753;28;20244;-46
2022/10/31 06:52:20;;;;;;;2.08;1.85;;;;;;;10.35;100.00;98957.41;4145447;28;20227;-45
2022/10/31 06:54:22;;;;;;;3.08;2.50;;;;;;;10.39;100.00;98960.50;4136430;28;20600;-45
2022/10/31 06:56:24;;;;;;;6.10;2.17;;;;;;;10.41;100.00;98961.13;4137425;28;20240;-45
2022/10/31 06:58:25;;;;;;;2.65;2.17;;;;;;;10.38;100.00;98962.44;4138132;28;20205;-45
2022/10/31 07:00:29;;;;;;;3.13;1.63;;;;;;;10.43;100.00;98953.50;4120548;28;20211;-45
2022/10/31 07:02:30;;;;;;;5.07;2.17;;;;;;;10.47;100.00;98954.69;4134191;28;20619;-46
2022/10/31 07:04:32;;;;;;;2.85;2.65;;;;;;;10.44;100.00;98949.69;4130910;28;20225;-45
2022/10/31 07:06:34;;;;;;;4.30;2.45;;;;;;;10.49;100.00;98952.56;4136940;28;20245;-46
2022/10/31 07:08:36;;;;;;;2.00;1.90;;;;;;;10.39;100.00;98952.31;4137226;28;20819;-48
2022/10/31 07:12:09;;;;;;;7.38;2.85;;;;;;;10.45;100.00;98959.56;4192974;27;20340;-86
2022/10/31 07:14:23;;;;;;;3.13;2.92;;;;;;;10.24;100.00;98968.34;4145256;28;20228;-85
2022/10/31 07:16:25;;;;;;;3.28;2.97;;;;;;;10.39;100.00;98969.56;4155174;28;20303;-85
2022/10/31 07:18:27;;;;;;;3.03;2.78;;;;;;;10.44;100.00;98971.56;4152167;28;20225;-84
2022/10/31 07:20:46;;;;;;;6.45;3.88;;;;;;;10.57;100.00;98965.88;4155379;28;20197;-85
2022/10/31 07:22:47;;;;;;;4.32;2.97;;;;;;;10.60;100.00;98970.84;4148847;28;20250;-86
2022/10/31 07:24:51;;;;;;;3.08;2.78;;;;;;;10.68;100.00;98967.78;4137535;28;20276;-86
2022/10/31 07:26:52;;;;;;;3.42;3.22;;;;;;;10.74;100.00;98972.28;4149607;28;20197;-85
2022/10/31 07:28:59;;;;;;;4.80;3.28;;;;;;;10.89;100.00;98970.69;4151267;28;20228;-86
2022/10/31 07:31:00;;;;;;;8.40;3.55;;;;;;;10.76;100.00;98970.94;4132509;28;20225;-85
2022/10/31 07:33:02;;;;;;;4.65;3.40;;;;;;;10.88;100.00;98969.88;4134920;28;20276;-86
2022/10/31 07:35:03;;;;;;;3.45;3.15;;;;;;;10.90;100.00;98973.19;4166256;28;20259;-85
2022/10/31 07:37:05;;;;;;;3.72;3.42;;;;;;;11.06;100.00;98975.22;4147211;28;20254;-86
2022/10/31 07:39:14;;;;;;;2.75;2.55;;;;;;;11.12;100.00;98974.22;4149943;28;20227;-86
2022/10/31 07:41:15;;;;;;;3.83;3.40;;;;;;;11.21;100.00;98970.03;4149019;28;20193;-86
2022/10/31 07:43:17;;;;;;;3.50;3.20;;;;;;;11.35;100.00;98973.31;4130569;28;20221;-86
2022/10/31 07:45:20;;;;;;;4.55;3.20;;;;;;;11.34;100.00;98980.72;4162654;28;20212;-86
2022/10/31 07:47:21;;;;;;;3.05;2.85;;;;;;;11.42;100.00;98972.09;4147409;28;20213;-86
2022/10/31 07:49:25;;;;;;;3.47;2.67;;;;;;;11.33;100.00;98984.53;4164031;28;20291;-86
2022/10/31 07:51:26;;;;;;;3.88;3.58;;;;;;;11.44;100.00;98974.59;4138189;28;20683;-86
2022/10/31 07:53:28;;;;;;;4.05;3.75;;;;;;;11.48;100.00;98971.13;4146897;28;20205;-86
2022/10/31 07:55:30;;;;;;;3.22;3.03;;;;;;;11.50;100.00;98973.63;4133593;28;20678;-87
2022/10/31 07:57:31;;;;;;;3.65;3.35;;;;;;;11.50;100.00;98974.44;4147817;28;20209;-86
2022/10/31 07:59:35;;;;;;;3.15;2.53;;;;;;;11.51;100.00;98969.81;4162823;28;20235;-87
2022/10/31 08:01:36;;;;;;;4.70;3.53;;;;;;;11.48;100.00;98976.59;4146984;28;21088;-87
2022/10/31 08:03:45;;;;;;;3.88;2.85;;;;;;;11.53;100.00;98976.72;4129075;28;20924;-86
2022/10/31 08:05:49;;;;;;;3.47;3.13;;;;;;;11.59;100.00;98966.69;4149672;28;20287;-86
2022/10/31 08:07:50;;;;;;;4.30;3.03;;;;;;;11.61;100.00;98976.34;4163574;28;20298;-87
2022/10/31 08:09:52;;;;;;;3.85;3.45;;;;;;;11.67;100.00;98974.53;4146872;28;21308;-86
2022/10/31 08:11:53;;;;;;;3.95;3.55;;;;;;;11.74;100.00;98978.78;4111837;28;20247;-87
2022/10/31 08:13:55;;;;;;;2.83;2.45;;;;;;;11.81;100.00;98979.47;4144468;28;20228;-86
2022/10/31 08:16:03;;;;;;;4.05;3.65;;;;;;;11.82;100.00;98972.88;4169816;28;20239;-86
2022/10/31 08:18:13;;;;;;;3.45;3.20;;;;;;;11.91;100.00;98974.13;4162890;28;20204;-86
2022/10/31 08:20:15;;;;;;;4.20;3.53;;;;;;;11.98;100.00;98972.06;4183721;28;20693;-86
2022/10/31 08:22:17;;;;;;;3.13;2.58;;;;;;;12.08;100.00;98975.00;4164229;28;20197;-87
2022/10/31 08:24:18;;;;;;;2.97;2.78;;;;;;;12.11;100.00;98976.41;4156959;28;20944;-86
2022/10/31 08:26:20;;;;;;;3.35;3.13;;;;;;;12.14;100.00;98971.28;4156305;28;20208;-87
2022/10/31 08:28:22;;;;;;;3.13;2.85;;;;;;;12.11;100.00;98974.50;4156722;28;20260;-86
2022/10/31 08:30:29;;;;;;;4.20;3.20;;;;;;;12.17;100.00;98964.47;4157178;28;20259;-86
2022/10/31 08:32:30;;;;;;;4.22;3.13;;;;;;;12.23;100.00;98969.75;4183069;28;21440;-86
2022/10/31 08:34:46;;;;;;;3.20;3.00;;;;;;;12.12;100.00;98973.41;4138361;28;20244;-87
2022/10/31 08:36:47;;;;;;;3.38;3.08;;;;;;;12.17;100.00;98970.75;4156523;28;20209;-86
2022/10/31 08:38:52;;;;;;;2.90;2.60;;;;;;;12.20;100.00;98975.75;4156903;28;20279;-86
2022/10/31 08:41:03;;;;;;;9.57;3.53;;;;;;;12.18;100.00;98975.16;4139165;28;20217;-87
2022/10/31 08:43:12;;;;;;;3.65;3.33;;;;;;;12.23;100.00;98969.75;4154173;28;21099;-86
2022/10/31 08:45:13;;;;;;;4.53;3.72;;;;;;;12.24;100.00;98965.94;4154276;28;20327;-87
2022/10/31 08:47:15;;;;;;;3.95;3.33;;;;;;;12.37;100.00;98960.09;4155094;28;20203;-87
2022/10/31 08:49:17;;;;;;;3.70;3.40;;;;;;;12.31;100.00;98961.09;4152498;28;20241;-87
2022/10/31 08:51:18;;;;;;;3.50;3.03;;;;;;;12.43;100.00;98961.03;4169108;28;20243;-87
2022/10/31 08:53:22;;;;;;;3.92;3.63;;;;;;;12.54;100.00;98960.94;4155908;28;20216;-87
2022/10/31 08:55:26;;;;;;;4.15;3.75;;;;;;;12.40;100.00;98945.06;4154682;28;20221;-86
2022/10/31 08:57:32;;;;;;;3.50;3.20;;;;;;;12.44;100.00;98954.47;4168127;28;20257;-87
2022/10/31 08:59:33;;;;;;;3.70;3.15;;;;;;;12.35;100.00;98945.81;4167320;28;20271;-87
2022/10/31 09:01:35;;;;;;;3.58;2.97;;;;;;;12.41;100.00;98944.81;4150952;28;20205;-87
2022/10/31 09:03:37;;;;;;;6.95;3.28;;;;;;;12.46;100.00;98946.81;4154017;28;20207;-86
2022/10/31 09:05:38;;;;;;;2.95;2.58;;;;;;;12.57;100.00;98943.94;4155469;28;20316;-86
2022/10/31 09:07:40;;;;;;;6.70;3.53;;;;;;;12.75;100.00;98949.16;4157082;28;20211;-87
2022/10/31 09:09:41;;;;;;;4.25;3.25;;;;;;;12.85;100.00;98948.47;4153872;28;20229;-86
2022/10/31 09:11:45;;;;;;;4.10;3.70;;;;;;;12.99;100.00;98947.88;4155667;28;20255;-87
2022/10/31 09:13:47;;;;;;;3.90;2.80;;;;;;;13.09;100.00;98947.19;4153582;28;20213;-87
2022/10/31 09:15:49;;;;;;;4.10;3.13;;;;;;;13.22;100.00;98947.63;4155927;28;20208;-87
2022/10/31 09:17:52;;;;;;;5.28;3.38;;;;;;;13.33;100.00;98943.91;4154215;28;20684;-87
2022/10/31 09:19:53;;;;;;;4.13;3.10;;;;;;;13.44;100.00;98925.59;4157450;28;20227;-87
2022/10/31 09:22:04;;;;;;;3.10;2.78;;;;;;;13.37;100.00;98934.03;4153133;28;20209;-87
2022/10/31 09:24:06;;;;;;;3.85;3.10;;;;;;;13.59;100.00;98925.75;4168769;28;20231;-87
2022/10/31 09:26:07;;;;;;;3.53;3.05;;;;;;;13.79;100.00;98923.22;4171351;28;20242;-86
2022/10/31 09:28:11;;;;;;;3.67;2.40;;;;;;;14.02;100.00;98926.47;4139766;28;20194;-87
2022/10/31 09:30:13;;;;;;;2.88;2.67;;;;;;;14.01;100.00;98926.72;4153321;28;20209;-87
2022/10/31 09:32:15;;;;;;;2.50;2.28;;;;;;;14.12;100.00;98915.56;4157513;28;20304;-87
2022/10/31 09:34:17;;;;;;;3.50;2.85;;;;;;;14.05;100.00;98920.44;4152397;28;20248;-87
2022/10/31 09:36:18;;;;;;;5.78;2.88;;;;;;;14.21;100.00;98926.91;4156268;28;20209;-87
2022/10/31 09:38:43;;;;;;;3.35;2.70;;;;;;;14.37;100.00;98924.00;4151590;28;20237;-87
2022/10/31 09:41:38;;;;;;;5.60;2.85;;;;;;;14.59;100.00;98921.97;4150976;28;20287;-87